x

West Erie - 16 Nm Nw Of Lorain, Oh (45005) Wave Buoy

12:40am - Wed 26th Apr 2017 All times are CDT. -5 hours from GMT.

  • Sig Wave height 2.0ft
  • Swell Direction
  • Average Period 4s
  • Wind
    7mph, 9mph gusts
  • Sea Temp 47°f
  • Air Temp 51°f
  • Sea Pressure 1007.6mb
  • West Erie - 16 Nm Nw Of Lorain, Oh
  • West Erie - 16 Nm Nw Of Lorain, Oh

More Historic Weather Station data

Upgrade to MSW Pro to gain access to the past 30 days of data for over 8000 Wavebouys and Weather Stations around the globe.

Join Pro

Comparision Forecast

View Surf forecast
   
Wed 04/26 12:40am 2ft  -  4s 7 9 mph 1007.6mb 47f 51f
12:30am  -   -   -  7 9 mph 1007.7mb 47f 52f
12:20am  -   -   -  9
mph
1007.6mb 47f 51f
12:10am  -   -   -  9 11 mph 1007.6mb 47f 51f
12:00am  -   -   -  9
mph
1007.6mb 47f 51f
Tue 04/25 11:50pm 2ft 5s 4s 9
mph
1007.5mb 47f 51f
11:40pm 2ft  -  4s 9
mph
1007.5mb 47f 51f
11:30pm  -   -   -  9
mph
1007.3mb 47f 51f
11:20pm  -   -   -  9
mph
1007.4mb 47f 51f
11:10pm  -   -   -  9
mph
1007.4mb 47f 51f
11:00pm  -   -   -  9
mph
1007.3mb 47f 51f
10:50pm 2ft 5s 4s 7 9 mph 1007.3mb 47f 51f
10:40pm 2ft  -  4s 7 9 mph 1007.3mb 47f 51f
10:30pm  -   -   -  9
mph
1007.3mb 47f 51f
10:20pm  -   -   -  9
mph
1007.3mb 47f 51f
10:10pm  -   -   -  9
mph
1007.3mb 47f 52f
10:00pm  -   -   -  9 11 mph 1007.3mb 47f 52f
9:50pm 2ft 5s 4s 9 11 mph 1007.4mb 47f 53f
9:40pm 2ft  -  4s 9 11 mph 1007.4mb 47f 53f
9:30pm  -   -   -  9 11 mph 1007.3mb 47f 53f
9:20pm  -   -   -  9 11 mph 1007mb 47f 53f
9:10pm  -   -   -  11
mph
1007mb 47f 53f
9:00pm  -   -   -  11
mph
1007.2mb - 53f
8:50pm 2ft 5s 4s 11
mph
1007mb 47f 52f
8:40pm  -   -   -  11
mph
1007.1mb 47f 52f
8:30pm  -   -   -  11
mph
1007.1mb 47f 51f
8:20pm  -   -   -  9 11 mph 1007.1mb - 51f
8:10pm  -   -   -  9 11 mph 1007.1mb 47f 50f
8:00pm  -   -   -  11 13 mph 1007.2mb 47f 50f
7:50pm 2.5ft 5s 4s 9 11 mph 1007.3mb 47f 49f
7:40pm 2.5ft  -  4s 9 11 mph 1007.4mb 47f 49f
7:30pm  -   -   -  9 13 mph 1007.5mb 47f 48f
7:20pm  -   -   -  13 16 mph 1007.2mb 47f 48f
7:10pm  -   -   -  13 16 mph 1007.1mb 47f 48f
7:00pm  -   -   -  13 16 mph 1007.2mb 47f 48f
6:50pm 2.5ft 4s 4s 13 18 mph 1007.3mb 47f 48f
6:40pm  -   -   -  16 18 mph 1007.1mb 47f 48f
6:30pm  -   -   -  16 18 mph 1007.4mb 47f 48f
6:20pm  -   -   -  16 18 mph 1007.5mb 47f 48f
6:10pm  -   -   -  16 20 mph 1007.6mb 47f 48f
6:00pm  -   -   -  16 20 mph 1007.6mb 47f 48f
5:50pm 2.5ft 4s 4s 16 20 mph 1007.6mb 47f 48f
5:40pm  -   -   -  16 18 mph 1007.8mb 47f 48f
5:30pm  -   -   -  16 18 mph 1008mb 47f 48f
5:20pm  -   -   -  16 18 mph 1008mb 47f 48f
5:10pm  -   -   -  16 20 mph 1008.1mb 47f 48f
5:00pm  -   -   -  16 20 mph 1008.1mb 47f 48f
4:50pm 2ft 4s 3s 16 20 mph 1008.3mb 47f 48f
4:40pm 2ft  -  3s 16 20 mph 1008.1mb 47f 48f
4:30pm  -   -   -  16 18 mph 1008.1mb 47f 48f
4:20pm  -   -   -  16 20 mph 1008.2mb 47f 48f
4:10pm  -   -   -  16 20 mph 1008.2mb 47f 47f
4:00pm  -   -   -  16 20 mph 1008.2mb 47f 48f
3:50pm 2ft 4s 3s 16 20 mph 1008.2mb 47f 48f
3:40pm  -   -   -  16 20 mph 1008.2mb 47f 48f
3:30pm  -   -   -  13 16 mph 1008.4mb 47f 48f
3:20pm  -   -   -  13 16 mph 1008.6mb 47f 47f
3:10pm  -   -   -  13 16 mph 1008.9mb 47f 48f
3:00pm  -   -   -  16 18 mph 1008.8mb 47f 48f
2:50pm 1.6ft 5s 3s 16 20 mph 1008.8mb 47f 48f
2:40pm  -   -   -  18 20 mph 1008.8mb 47f 48f
2:30pm  -   -   -  13 18 mph 1008.8mb 47f 48f
2:20pm  -   -   -  13 16 mph 1009.1mb 47f 48f
2:10pm  -   -   -  16 18 mph 1009mb 47f 48f
2:00pm  -   -   -  16 18 mph 1009.2mb 47f 48f
1:50pm 2ft 4s 3s 16 18 mph 1009.3mb 47f 48f
1:40pm  -   -   -  16 18 mph 1009.3mb 47f 48f
1:30pm  -   -   -  16 18 mph 1009.5mb 47f 48f
1:20pm  -   -   -  16 18 mph 1009.6mb 47f 49f
1:10pm  -   -   -  16 18 mph 1009.7mb 47f 49f
1:00pm  -   -   -  16 20 mph 1009.8mb 47f 49f
12:50pm 1.6ft 4s 3s 13 18 mph 1010mb 47f 50f
12:40pm 1.6ft  -  3s 11 16 mph 1010mb 47f 49f
12:30pm  -   -   -  11 13 mph 1010.2mb 47f 50f
12:20pm  -   -   -  13
mph
1010.2mb 47f 50f
12:10pm  -   -   -  11 13 mph 1010.3mb 47f 49f
12:00pm  -   -   -  9 11 mph 1010.6mb 47f 49f
11:50am 1.3ft 4s 3s 11 13 mph 1010.7mb 47f 49f
11:40am  -   -   -  9 11 mph 1011.1mb 46f 49f
11:30am  -   -   -  9 11 mph 1011.3mb 47f 50f
11:20am  -   -   -  11 13 mph 1011.4mb 46f 50f
11:10am  -   -   -  11 13 mph 1011.5mb 46f 50f
11:00am  -   -   -  7 11 mph 1011.5mb 46f 51f
10:50am 1.3ft 5s 4s 7
mph
1011.7mb 46f 50f
10:40am 1.3ft  -  4s 7 9 mph 1011.7mb 46f 49f
10:30am  -   -   -  7 9 mph 1011.6mb 46f 49f
10:20am  -   -   -  7 9 mph 1011.7mb 46f 49f
10:10am  -   -   -  7
mph
1012mb 46f 49f
10:00am  -   -   -  9 11 mph 1012mb 46f 49f
9:50am 1.3ft 5s 4s 9 11 mph 1011.9mb 46f 49f
9:40am 1.3ft  -  4s 9 11 mph 1011.9mb 46f 48f
9:30am  -   -   -  7 9 mph 1012mb 46f 48f
9:20am  -   -   -  7 9 mph 1012.1mb 46f 48f
9:10am  -   -   -  7
mph
1012.1mb 46f 48f
9:00am  -   -   -  7
mph
1012.3mb 46f 48f
8:50am 1.3ft 5s 4s 7 9 mph 1012.4mb 46f 48f
8:40am  -   -   -  7 9 mph 1012.4mb 46f 48f
8:30am  -   -   -  7 9 mph 1012.3mb 46f 48f
8:20am  -   -   -  9
mph
1012.3mb 46f 48f
8:10am  -   -   -  7 9 mph 1012.3mb 46f 48f
8:00am  -   -   -  9
mph
1012.3mb - 48f
7:50am 1.6ft 4s 4s 9
mph
1012.3mb 46f 48f
7:40am  -   -   -  9
mph
1012.3mb 46f 48f
7:30am  -   -   -  7 9 mph 1012.4mb 46f 48f
7:20am  -   -   -  7 9 mph 1012.4mb 46f 48f
7:10am  -   -   -  7 9 mph 1012.4mb 46f 48f
7:00am  -   -   -  7 9 mph 1012.4mb 46f 47f
6:50am 1.6ft 5s 4s 7
mph
1012.4mb 46f 47f
6:40am  -   -   -  7 9 mph 1012.3mb 46f 47f
6:30am  -   -   -  7 9 mph 1012.3mb 46f 47f
6:20am  -   -   -  4 7 mph 1012.3mb 46f 47f
6:10am  -   -   -  7
mph
1012.2mb 46f 47f
6:00am  -   -   -  4 7 mph 1012.1mb 46f 47f
5:50am 2ft 5s 4s 4
mph
1012mb 46f 47f
5:40am 2ft  -  4s 4
mph
1011.9mb 46f 48f
5:30am  -   -   -  4 7 mph 1011.9mb 46f 48f
5:20am  -   -   -  7
mph
1011.7mb 46f 48f
5:10am  -   -   -  4 7 mph 1011.5mb 46f 49f
5:00am  -   -   -  7
mph
1011.5mb 46f 48f
4:50am 2ft 5s 4s 4 7 mph 1011.5mb 46f 48f
4:40am  -   -   -  4 7 mph 1011.6mb 46f 48f
4:30am  -   -   -  4 7 mph 1011.5mb 46f 48f
4:20am  -   -   -  7 11 mph 1011.5mb 46f 48f
4:10am  -   -   -  7 9 mph 1011.4mb 46f 48f
4:00am  -   -   -  9
mph
1011.3mb 46f 48f
3:50am 2.5ft  -  4s 9
mph
1011.3mb - 48f
3:40am 2.5ft 5s 4s  -  mph - 46f -
3:30am  -   -   -  9 11 mph - - -
3:20am  -   -   -  9 11 mph 1011.4mb 46f 48f
3:10am  -   -   -  9 11 mph 1011.4mb 46f 48f
3:00am  -   -   -  9
mph
1011.6mb 46f 47f
2:50am 2.5ft 5s 4s 9 11 mph 1011.6mb 46f 47f
2:40am  -   -   -  9 11 mph 1011.6mb 46f 47f
2:30am  -   -   -  9 11 mph 1011.7mb 46f 47f
2:20am  -   -   -  9 11 mph 1011.8mb 46f 47f
2:10am  -   -   -  9 11 mph 1011.9mb 46f 47f
2:00am  -   -   -  11 13 mph 1011.9mb 46f 47f
1:50am 2.5ft 5s 4s 11 13 mph 1012mb 46f 46f
1:40am 2.5ft  -  4s 11 13 mph 1012.1mb 46f 47f
1:30am  -   -   -  11 13 mph 1012.3mb 46f 47f
1:20am  -   -   -  11
mph
1012.4mb 46f 47f
1:10am  -   -   -  11 13 mph 1012.5mb 46f 47f
1:00am  -   -   -  11 16 mph 1012.5mb 46f 47f
12:50am 3ft 5s 4s 13 16 mph 1012.6mb 46f 47f
12:40am 3ft  -  4s 13 16 mph 1012.7mb 46f 47f
12:30am  -   -   -  16 18 mph 1012.6mb 46f 47f
12:20am  -   -   -  16 18 mph 1012.7mb 46f 47f
12:10am  -   -   -  16 20 mph 1012.8mb 46f 47f
12:00am  -   -   -  16 18 mph 1012.9mb 46f 47f
Mon 04/24 11:50pm 3.5ft 6s 4s 13 18 mph 1013.1mb 46f 47f
11:40pm  -   -   -  13 16 mph 1013.2mb 46f 47f
11:30pm  -   -   -  13 16 mph 1013.3mb 46f 47f
11:20pm  -   -   -  13 16 mph 1013.4mb 46f 47f
11:10pm  -   -   -  13 16 mph 1013.4mb 46f 47f
11:00pm  -   -   -  13 16 mph 1013.5mb 46f 47f
10:50pm 3.5ft 6s 4s 13 18 mph 1013.4mb 46f 47f
10:40pm 3.5ft  -  4s 13 18 mph 1013.4mb 46f 47f
10:30pm  -   -   -  16 20 mph 1013.4mb 46f 47f
10:20pm  -   -   -  16 20 mph 1013.4mb 46f 47f
10:10pm  -   -   -  16 20 mph 1013.5mb 46f 47f
10:00pm  -   -   -  18 22 mph 1013.5mb 46f 47f
9:50pm 4ft 6s 4s 18 22 mph 1013.6mb 46f 48f
9:40pm 4ft  -  4s 18 20 mph 1013.6mb 46f 48f
9:30pm  -   -   -  18 22 mph 1013.7mb 46f 48f
9:20pm  -   -   -  18 22 mph 1013.7mb 46f 47f
9:10pm  -   -   -  20 22 mph 1013.7mb 46f 48f
9:00pm  -   -   -  20 25 mph 1013.6mb 46f 48f
8:50pm 4.5ft 6s 5s 20 25 mph 1013.5mb 46f 48f
8:40pm  -   -   -  20 25 mph 1013.5mb 46f 48f
8:30pm  -   -   -  20 25 mph 1013.5mb 46f 48f
8:20pm  -   -   -  20 25 mph 1013.4mb 46f 48f
8:10pm  -   -   -  22 27 mph 1013.5mb 46f 48f
8:00pm  -   -   -  22 27 mph - 46f -
7:50pm 5ft 6s 5s 22 27 mph 1013.3mb 46f 48f
7:40pm  -   -   -  22 27 mph 1013.3mb 46f 48f
7:30pm  -   -   -  22 27 mph 1013.3mb - 48f
7:20pm  -   -   -  22 27 mph 1013.2mb 45f 48f
7:10pm  -   -   -  25 31 mph 1013.2mb 45f 48f
7:00pm  -   -   -  25 29 mph 1013.2mb 45f 48f
6:50pm 4.5ft 5s 4s 25 29 mph 1013.4mb 45f 48f
6:40pm  -   -   -  25 29 mph 1013.4mb 45f 48f
6:30pm  -   -   -  22 27 mph 1013.4mb 45f 48f
6:20pm  -   -   -  22 27 mph 1013.5mb 45f 48f
6:10pm  -   -   -  22 27 mph 1013.5mb 45f 48f
6:00pm  -   -   -  22 27 mph 1013.5mb 45f 48f
5:50pm 4.5ft 5s 4s 20 25 mph 1013.6mb 45f 48f
5:40pm 4.5ft  -  4s 20 25 mph 1013.6mb 45f 48f
5:30pm  -   -   -  20 25 mph 1013.7mb 45f 48f
5:20pm  -   -   -  20 25 mph 1013.7mb 45f 48f
5:10pm  -   -   -  20 25 mph 1013.9mb 45f 48f
5:00pm  -   -   -  22 27 mph 1013.9mb 45f 48f
4:50pm 4.5ft 6s 4s 22 27 mph 1013.9mb 45f 48f
4:40pm 4.5ft  -  4s 20 27 mph 1014mb 45f 48f
4:30pm  -   -   -  20 25 mph 1014.1mb 45f 48f
4:20pm  -   -   -  20 25 mph 1014.2mb 45f 48f
4:10pm  -   -   -  20 27 mph 1014.2mb - 48f
4:00pm  -   -   -  20 25 mph 1014.4mb 45f 48f
3:50pm 3.5ft 6s 4s 20 25 mph 1014.5mb 45f 48f
3:40pm  -   -   -  20 25 mph 1014.6mb 45f 48f
3:30pm  -   -   -  20 25 mph 1014.9mb 45f 48f
3:20pm  -   -   -  18 20 mph 1015.1mb 45f 48f
3:10pm  -   -   -  18 22 mph 1015.3mb 45f 47f
3:00pm  -   -   -  18 22 mph 1015.6mb 45f 47f
2:50pm 3.5ft 5s 4s 18 22 mph 1015.6mb 45f 47f
2:40pm  -   -   -  18 20 mph 1015.7mb 45f 47f
2:30pm  -   -   -  18 22 mph 1015.7mb 45f 46f
2:20pm  -   -   -  18 22 mph 1015.9mb 45f 46f
2:10pm  -   -   -  18 22 mph 1016.1mb 45f 46f
2:00pm  -   -   -  18 22 mph 1016.1mb 45f 46f
1:50pm 3.5ft 5s 4s 18 22 mph 1016.2mb 45f 46f
1:40pm 3.5ft  -  4s 18 22 mph 1016.3mb 45f 46f
1:30pm  -   -   -  18 22 mph 1016.4mb 45f 46f
1:20pm  -   -   -  18 22 mph 1016.4mb 45f 46f
1:10pm  -   -   -  18 22 mph 1016.4mb 45f 46f
1:00pm  -   -   -  18 20 mph 1016.7mb 45f 46f
12:50pm 3.5ft 5s 4s 18 20 mph 1016.7mb 45f 46f
12:40pm  -   -   -  18 22 mph 1016.8mb 45f 46f
12:30pm  -   -   -  18 20 mph 1016.9mb 45f 46f
12:20pm  -   -   -  18 22 mph 1017mb 45f 46f
12:10pm  -   -   -  18 22 mph 1017.1mb 45f 46f
12:00pm  -   -   -  18 20 mph 1017.2mb 45f 46f
11:50am 3ft 5s 4s 18 22 mph 1017.2mb 45f 46f
11:40am 3ft  -  4s 18 22 mph 1017.4mb 45f 46f
11:30am  -   -   -  18 20 mph 1017.5mb 45f 46f
11:20am  -   -   -  18 22 mph 1017.6mb 45f 46f
11:10am  -   -   -  18 22 mph 1017.6mb 45f 46f
11:00am  -   -   -  18 22 mph 1017.6mb 45f 46f
10:50am 2.5ft 4s 4s 18 22 mph 1017.8mb 45f 46f
10:40am  -   -   -  18 22 mph 1017.8mb 45f 46f
10:30am  -   -   -  18 22 mph 1017.8mb 45f 46f
10:20am  -   -   -  18 22 mph 1017.9mb 45f 46f
10:10am  -   -   -  18 22 mph 1018mb 45f 46f
10:00am  -   -   -  18 22 mph 1018mb 45f 46f
9:50am 2ft 3s 3s 18 22 mph 1018.1mb 45f 46f
9:40am 2ft  -  3s 18 22 mph 1018.1mb 45f 46f
9:30am  -   -   -  18 22 mph 1018.4mb 45f 46f
9:20am  -   -   -  18 22 mph 1018.3mb 45f 46f
9:10am  -   -   -  18 22 mph 1018.5mb 45f 46f
9:00am  -   -   -  18 22 mph 1018.5mb 45f 46f
8:50am 1.3ft 3s 3s 18 20 mph 1018.5mb 45f 46f
8:40am  -   -   -  16 18 mph 1018.6mb 45f 46f
8:30am  -   -   -  16 20 mph 1018.8mb 45f 46f
8:20am  -   -   -  16 18 mph 1018.9mb 45f 46f
8:10am  -   -   -  13 16 mph 1019mb 45f 46f
8:00am  -   -   -  13 16 mph 1018.9mb 45f 46f
7:50am 1.3ft 3s 3s 13 16 mph 1018.8mb 45f 46f
7:40am 1.3ft  -  3s 13 18 mph 1018.7mb 45f 46f
7:30am  -   -   -  13 18 mph 1018.6mb 45f 46f
7:20am  -   -   -  16 18 mph 1018.5mb 45f 46f
7:10am  -   -   -  16 18 mph 1018.4mb 45f 46f
7:00am  -   -   -  13 16 mph 1018.3mb 45f 46f
6:50am 1.3ft 3s 3s 16 18 mph 1018.1mb 45f 46f
6:40am 1.3ft  -  3s 13 16 mph 1018.3mb 45f 46f
6:30am  -   -   -  13 16 mph 1018.2mb 45f 46f
6:20am  -   -   -  13 16 mph 1018mb 45f 45f
6:10am  -   -   -  13 16 mph 1017.9mb 45f 45f
6:00am  -   -   -  13 18 mph 1017.9mb 45f 45f
5:50am 1ft 3s 3s 16 18 mph 1017.9mb 45f 45f
5:40am 1ft  -  3s 13 18 mph 1017.9mb 45f 45f
5:30am  -   -   -  13 18 mph 1017.8mb 45f 45f
5:20am  -   -   -  13 16 mph 1017.8mb 45f 46f
5:10am  -   -   -  13
mph
1017.8mb 45f 46f
5:00am  -   -   -  13 16 mph 1017.8mb 45f 46f
4:50am 0.7ft  -  2s 13 16 mph 1017.9mb 45f 46f
4:40am  -   -   -  13 18 mph 1017.8mb 45f 46f
4:30am  -   -   -  13 16 mph 1017.7mb 45f 46f
4:20am  -   -   -  13 16 mph 1017.7mb 45f 46f
4:10am  -   -   -  11 13 mph 1017.6mb 45f 46f
4:00am  -   -   -  11 13 mph 1017.7mb 45f 46f
3:50am 0.3ft  -  2s 11 13 mph 1017.7mb 45f 46f
3:40am  -   -   -  11 13 mph 1017.7mb 45f 46f
3:30am  -   -   -  11 13 mph 1017.7mb 45f 46f
3:20am  -   -   -  11 13 mph 1017.6mb 45f 46f
3:10am  -   -   -  9 11 mph 1017.6mb 46f 46f
3:00am  -   -   -  9 11 mph 1017.6mb 46f 46f
2:50am 0.3ft  -  3s 9 11 mph 1017.6mb 46f 46f
2:40am 0.3ft  -  3s 9 11 mph 1017.5mb 46f 46f
2:30am  -   -   -  9 11 mph 1017.5mb 46f 46f
2:20am  -   -   -  9 11 mph 1017.7mb 46f 47f
2:10am  -   -   -  11 13 mph 1017.9mb 46f 46f
2:00am  -   -   -  9 11 mph 1018mb 46f 47f
1:50am  -   -  3s 9 11 mph 1018mb 46f 46f
1:40am  -   -   -  9
mph
1018mb 46f 47f
1:30am  -   -   -  7 11 mph 1018mb 46f 46f
1:20am  -   -   -  7 9 mph 1018mb 46f 46f
1:10am  -   -   -  7
mph
1018.1mb 46f 46f
1:00am  -   -   -  7
mph
1018.1mb 46f 46f
12:50am  -   -  3s 4 7 mph 1018.4mb 46f 46f
12:40am  -   -  3s 4 7 mph 1018.4mb 46f 46f
12:30am  -   -   -  4
mph
1018.5mb 46f 46f
12:20am  -   -   -  4
mph
1018.5mb 46f 46f
12:10am  -   -   -  4 7 mph 1018.5mb 46f 46f
12:00am  -   -   -  2 4 mph 1018.5mb 46f 46f
Sun 04/23 11:50pm 0.3ft  -  3s 2
mph
1018.5mb 46f 46f
11:40pm 0.3ft  -  3s 2
mph
1018.5mb 46f 46f
11:30pm  -   -   -  4 7 mph 1018.5mb 46f 46f
11:20pm  -   -   -  4 7 mph 1018.3mb 46f 46f
11:10pm  -   -   -  4
mph
1018.5mb 46f 46f
11:00pm  -   -   -  4
mph
1018.5mb 46f 46f
10:50pm 0.3ft  -  3s 4
mph
1018.6mb 46f 46f
10:40pm 0.3ft  -  3s 4
mph
1018.5mb 46f 46f
10:30pm  -   -   -  4
mph
1018.5mb 46f 46f
10:20pm  -   -   -  4
mph
1018.5mb 46f 46f
10:10pm  -   -   -  4
mph
1018.6mb 46f 47f
10:00pm  -   -   -  2 4 mph 1018.5mb 46f 47f
9:50pm 0.3ft  -  3s 2 4 mph 1018.8mb 46f 47f
9:40pm 0.3ft  -  3s 4
mph
1018.9mb 46f 47f
9:30pm  -   -   -  4 7 mph 1018.8mb 46f 48f
9:20pm  -   -   -  4 7 mph 1018.8mb 46f 48f
9:10pm  -   -   -  4 7 mph 1018.7mb 46f 48f
9:00pm  -   -   -  7
mph
1018.6mb 46f 48f
8:50pm 0.3ft  -  3s 7 9 mph 1018.7mb 46f 48f
8:40pm  -   -   -  7 9 mph 1018.5mb 46f 48f
8:30pm  -   -   -  7 9 mph 1018.4mb 46f 48f
8:20pm  -   -   -  9
mph
1018.4mb - 48f
8:10pm  -   -   -  9
mph
1018.4mb 46f 48f
8:00pm  -   -   -  7 9 mph 1018.3mb 46f 48f
7:50pm 0.3ft  -  3s 7 9 mph 1018.3mb 46f 47f
7:40pm 0.3ft  -  3s 7 9 mph 1018.2mb 46f 47f
7:30pm  -   -   -  9 11 mph 1018.2mb 46f 47f
7:20pm  -   -   -  11 13 mph 1018.3mb 46f 47f
7:10pm  -   -   -  7 9 mph 1018.2mb 46f 47f
7:00pm  -   -   -  4
mph
1017.9mb 46f 47f
6:50pm 0.3ft  -  3s 4
mph
1018mb 46f 48f
6:40pm  -   -   -  4
mph
1018mb 46f 48f
6:30pm  -   -   -  4 7 mph 1018.1mb 46f 48f
6:20pm  -   -   -  4
mph
1018.4mb 46f 49f
6:10pm  -   -   -  4
mph
1018.3mb 46f 49f
6:00pm  -   -   -  4 7 mph 1018.3mb 46f 48f
5:50pm 0.3ft  -  3s 7
mph
1018.2mb 46f 48f
5:40pm 0.3ft  -  3s 4 7 mph 1018.1mb 46f 49f
5:30pm  -   -   -  4 7 mph 1018.3mb 46f 49f
5:20pm  -   -   -  7
mph
1018.4mb 46f 49f
5:10pm  -   -   -  7
mph
1018.3mb 46f 49f
5:00pm  -   -   -  7
mph
1018.5mb 46f 49f
4:50pm 0.3ft  -  3s 7
mph
1018.5mb 46f 49f
4:40pm 0.3ft  -  3s 7
mph
1018.6mb 46f 49f
4:30pm  -   -   -  7 9 mph 1018.4mb 46f 48f
4:20pm  -   -   -  9
mph
1018.2mb 46f 48f
4:10pm  -   -   -  9 11 mph 1018.3mb 46f 48f
4:00pm  -   -   -  9 11 mph 1018.4mb 46f 48f
3:50pm 0.3ft  -  3s 9 11 mph 1018.7mb 46f 48f
3:40pm  -   -   -  9 11 mph 1018.7mb 46f 48f
3:30pm  -   -   -  9
mph
1018.7mb 46f 47f
3:20pm  -   -   -  7 9 mph 1018.9mb 46f 47f
3:10pm  -   -   -  4 7 mph 1018.9mb 46f 47f
3:00pm  -   -   -  7
mph
1018.8mb 46f 47f
2:50pm 0.3ft  -  3s 7
mph
1019.1mb 46f 47f
2:40pm 0.3ft  -  3s 4 7 mph 1019.1mb 46f 47f
2:30pm  -   -   -  7 9 mph 1019.1mb 46f 47f
2:20pm  -   -   -  9
mph
1019.3mb 46f 46f
2:10pm  -   -   -  7 9 mph 1019.4mb 46f 46f
2:00pm  -   -   -  7 9 mph 1019.6mb 46f 46f
1:50pm 0.3ft  -  3s 7 9 mph 1019.7mb 46f 46f
1:40pm 0.3ft  -  3s 7 9 mph 1019.8mb 46f 46f
1:30pm  -   -   -  4 7 mph 1019.8mb 46f 46f
1:20pm  -   -   -  4
mph
1019.8mb 45f 46f
1:10pm  -   -   -  4
mph
1019.9mb 45f 46f
1:00pm  -   -   -  4 7 mph 1019.9mb 45f 45f
12:50pm 0.3ft  -  3s 4 7 mph 1019.9mb 45f 45f
12:40pm 0.3ft  -  3s 4 7 mph 1020mb 45f 45f
12:30pm  -   -   -  4 7 mph 1020.2mb 45f 45f
12:20pm  -   -   -  4 7 mph 1020.4mb 45f 45f
12:10pm  -   -   -  7
mph
1020.4mb 45f 45f
12:00pm  -   -   -  7 9 mph 1020.4mb 45f 45f
11:50am 0.3ft  -  3s 9 11 mph 1020.5mb 45f 45f
11:40am  -   -   -  9
mph
1020.6mb 45f 45f
11:30am  -   -   -  9
mph
1020.7mb 45f 45f
11:20am  -   -   -  9 11 mph 1020.8mb 45f 45f
11:10am  -   -   -  9
mph
1020.8mb 45f 45f
11:00am  -   -   -  7 9 mph 1020.8mb 45f 44f
10:50am 0.3ft  -  3s 9
mph
1021mb 45f 44f
10:40am 0.3ft  -  3s 9
mph
1021.1mb 45f 44f
10:30am  -   -   -  7 9 mph 1021mb 45f 44f
10:20am  -   -   -  4 7 mph 1020.9mb 45f 44f
10:10am  -   -   -  4
mph
1020.7mb 45f 44f
10:00am  -   -   -  4
mph
1020.9mb 45f 44f
9:50am 0.3ft  -  3s 4 7 mph 1021mb 44f 44f
9:40am 0.3ft  -  3s 4 7 mph 1020.9mb 44f 44f
9:30am  -   -   -  4 7 mph 1021mb 44f 44f
9:20am  -   -   -  7
mph
1021mb 44f 44f
9:10am  -   -   -  4 7 mph 1021.1mb 44f 44f
9:00am  -   -   -  4 7 mph 1021.1mb 44f 44f
8:50am 0.3ft  -  3s 4 7 mph 1021.4mb 44f 44f
8:40am 0.3ft  -  3s 4 7 mph 1021.4mb 44f 44f
8:30am  -   -   -  4 7 mph 1021.5mb 44f 44f
8:20am  -   -   -  4 7 mph 1021.7mb 44f 44f
8:10am  -   -   -  7
mph
1021.7mb 44f 44f
8:00am  -   -   -  7 9 mph 1021.8mb 44f 44f
7:50am 0.3ft  -  3s 7 9 mph 1021.8mb 44f 44f
7:40am 0.3ft  -  3s 7
mph
1021.8mb 44f 44f
7:30am  -   -   -  7
mph
1021.5mb 44f 44f
7:20am  -   -   -  7 9 mph 1021.7mb 44f 44f
7:10am  -   -   -  7 9 mph 1021.7mb 44f 44f
7:00am  -   -   -  7
mph
1021.6mb 44f 44f
6:50am 0.3ft  -  3s 4 7 mph 1021.4mb 44f 44f
6:40am  -   -   -  7 9 mph 1021.3mb 44f 44f
6:30am  -   -   -  4 7 mph 1021.3mb 44f 44f
6:20am  -   -   -  4
mph
1021.2mb 44f 44f
6:10am  -   -   -  4
mph
1021mb 44f 44f
6:00am  -   -   -  2
mph
1020.9mb 44f 44f
5:50am 0.3ft  -  3s  -  2 mph 1020.7mb 44f 43f
5:40am 0.3ft  -  3s  -  2 mph 1020.6mb 44f 44f
5:30am  -   -   -  2
mph
1020.5mb 44f 44f
5:20am  -   -   -  2
mph
1020.3mb 44f 44f
5:10am  -   -   -  4 7 mph 1020.2mb 44f 44f
5:00am  -   -   -  7
mph
1020mb 44f 44f
4:50am 0.3ft  -  2s 7
mph
1019.8mb 44f 44f
4:40am 0.3ft  -  2s 7
mph
1019.8mb 44f 44f
4:30am  -   -   -  4 7 mph 1019.7mb 44f 44f
4:20am  -   -   -  4
mph
1019.8mb 44f 44f
4:10am  -   -   -  4
mph
1019.8mb 44f 44f
4:00am  -   -   -  4
mph
1019.7mb 44f 44f
3:50am 0.3ft  -  2s 4 7 mph 1019.7mb 44f 44f
3:40am 0.3ft  -  2s 4 7 mph 1019.7mb 44f 44f
3:30am  -   -   -  4 7 mph 1019.8mb 44f 44f
3:20am  -   -   -  4 7 mph 1019.8mb 44f 44f
3:10am  -   -   -  4
mph
1019.9mb 44f 44f
3:00am  -   -   -  4 7 mph 1020mb 44f 44f
2:50am 0.3ft  -  2s 4 7 mph 1020mb 44f 44f
2:40am 0.3ft  -  2s 7
mph
1020mb 44f 44f
2:30am  -   -   -  4 7 mph 1020.1mb 44f 44f
2:20am  -   -   -  4 7 mph 1020.2mb 44f 44f
2:10am  -   -   -   -  mph - 44f -
2:00am  -   -   -  7
mph
1020.4mb - 44f
1:50am 0.3ft  -  2s 4 7 mph 1020.5mb 44f 44f
1:40am 0.3ft  -  2s  -  mph - - -
1:30am  -   -   -  7
mph
1020.6mb 44f 45f
1:20am  -   -   -  7
mph
1020.6mb 44f 45f
1:10am  -   -   -  7 9 mph 1020.8mb 44f 45f
1:00am  -   -   -  7 9 mph 1020.9mb 44f 45f
12:50am 0.3ft  -  2s 7 9 mph 1021mb 44f 45f
12:40am 0.3ft  -  2s 7 9 mph 1021mb 44f 45f
12:30am  -   -   -  7
mph
1021.1mb 44f 45f
12:20am  -   -   -  7 9 mph 1021.1mb 44f 45f
12:10am  -   -   -  7 9 mph 1021.2mb 44f 45f
12:00am  -   -   -  7 9 mph 1021.1mb 44f 46f
Sat 04/22 11:50pm 0.7ft  -  3s 7 9 mph 1021.1mb 44f 46f
11:40pm  -   -   -  7 9 mph 1021mb 45f 46f
11:30pm  -   -   -  7 9 mph 1021.1mb 45f 46f
11:20pm  -   -   -  7 9 mph 1021mb 45f 46f
11:10pm  -   -   -  9
mph
1021mb 45f 46f
11:00pm  -   -   -  7 9 mph 1021mb 45f 46f
10:50pm 0.7ft  -  3s 9
mph
1021mb 45f 46f
10:40pm  -   -   -  9 11 mph 1020.9mb 45f 46f
10:30pm  -   -   -  9 11 mph 1021mb 45f 46f
10:20pm  -   -   -  9 11 mph 1021mb 45f 46f
10:10pm  -   -   -  9
mph
1020.9mb 45f 46f
10:00pm  -   -   -  7 9 mph 1021mb 45f 46f
9:50pm 0.7ft  -  3s 4 7 mph 1021.1mb 45f 46f
9:40pm  -   -   -  4 7 mph 1021.1mb 45f 46f
9:30pm  -   -   -  4 7 mph 1021mb 45f 46f
9:20pm  -   -   -  4
mph
1021mb 45f 46f
9:10pm  -   -   -  4 7 mph 1020.9mb 45f 47f
9:00pm  -   -   -  4 7 mph 1020.9mb 45f 47f
8:50pm 0.7ft  -  3s 4 7 mph 1020.7mb 45f 46f
8:40pm  -   -   -  2
mph
- 45f -
8:30pm  -   -   -   -  2 mph 1020.6mb 45f 46f
8:20pm  -   -   -   -  2 mph 1020.6mb 45f 45f
8:10pm  -   -   -  2
mph
1020.5mb - 45f
8:00pm  -   -   -   -  2 mph 1020.4mb 45f 45f
7:40pm 0.7ft  -  3s  -  mph - - -
7:30pm  -   -   -  4
mph
1020.2mb 45f 45f
7:20pm  -   -   -  2 4 mph 1020.2mb 45f 45f
7:10pm  -   -   -  2
mph
1020.2mb 45f 46f
7:00pm  -   -   -  4
mph
1020.3mb 45f 45f
6:50pm 0.7ft  -  3s 2 4 mph 1020.5mb 45f 45f
6:40pm 0.7ft  -  3s 4
mph
1020.4mb 45f 45f
6:30pm  -   -   -  4
mph
1020.2mb 45f 45f
6:20pm  -   -   -  2 4 mph 1020.2mb 45f 45f
6:10pm  -   -   -  2
mph
1020.1mb 45f 45f
6:00pm  -   -   -  2
mph
1020.1mb 45f 45f
5:50pm 0.7ft  -  3s 2
mph
1020.1mb 45f 45f
5:40pm  -   -   -  2
mph
1020.2mb 45f 45f
5:30pm  -   -   -  2
mph
1020.3mb 45f 45f
5:20pm  -   -   -   -  2 mph 1020.3mb 45f 46f
5:10pm  -   -   -  2 4 mph 1020.4mb 45f 45f
5:00pm  -   -   -  2 4 mph 1020.4mb 45f 45f
4:50pm 1ft 3s 3s 2
mph
1020.4mb 45f 46f
4:40pm  -   -   -  2
mph
1020.5mb 45f 46f
4:30pm  -   -   -  2
mph
1020.5mb 45f 46f
4:20pm  -   -   -  2
mph
1020.5mb 45f 45f
4:10pm  -   -   -  2
mph
1020.6mb 45f 46f
4:00pm  -   -   -   -  2 mph 1020.6mb 45f 47f
3:50pm 1ft 3s 3s  -  mph 1020.4mb 45f 47f
3:40pm  -   -   -   -  2 mph 1020.6mb 45f 46f
3:30pm  -   -   -  2
mph
1020.7mb 45f 45f
3:20pm  -   -   -  2 4 mph 1020.9mb 45f 45f
3:10pm  -   -   -  2 4 mph 1021mb 45f 45f
3:00pm  -   -   -  4
mph
1021.1mb 45f 45f
2:50pm 1ft 3s 3s 4
mph
1021.2mb 45f 45f
2:40pm  -   -   -  4
mph
1021.1mb 45f 45f
2:30pm  -   -   -  4
mph
1021.2mb 45f 45f
2:20pm  -   -   -  2 4 mph 1021.2mb 45f 45f
2:10pm  -   -   -  2
mph
1021.3mb 45f 45f
2:00pm  -   -   -  2 4 mph 1021.2mb 45f 45f
1:50pm 1ft 3s 3s 2 4 mph 1021.4mb 45f 45f
1:40pm  -   -   -  4
mph
1021.5mb 45f 44f
1:30pm  -   -   -  4
mph
1021.5mb 45f 44f
1:20pm  -   -   -  2
mph
1021.5mb 44f 45f
1:10pm  -   -   -  2
mph
1021.4mb 44f 44f
1:00pm  -   -   -  2
mph
1021.3mb 44f 45f
12:50pm 1ft 3s 3s  -  mph 1021.4mb 44f 45f
12:40pm 1ft  -  3s  -  2 mph 1021.5mb 44f 45f
12:30pm  -   -   -  2 4 mph 1021.5mb 44f 44f
12:20pm  -   -   -  2 4 mph 1021.4mb 44f 44f
12:10pm  -   -   -  4
mph
1021.4mb 44f 44f
12:00pm  -   -   -  4
mph
1021.6mb 44f 44f
11:50am 1.3ft 3s 3s 4 7 mph 1021.8mb 44f 44f
11:40am 1.3ft  -  3s 7
mph
1021.7mb 44f 44f
11:30am  -   -   -  7 9 mph 1021.7mb 44f 44f
11:20am  -   -   -  9 11 mph 1021.5mb 44f 44f
11:10am  -   -   -  11 13 mph 1021.4mb 44f 44f
11:00am  -   -   -  11 13 mph 1021.4mb 44f 43f
10:50am 1.6ft 3s 3s 11 13 mph 1021.2mb 44f 43f
10:40am  -   -   -  13 16 mph 1021.2mb 44f 43f
10:30am  -   -   -  11 13 mph 1021mb 44f 43f
10:20am  -   -   -  11 13 mph 1021.3mb 44f 43f
10:10am  -   -   -  13 16 mph 1021.1mb 44f 43f
10:00am  -   -   -  13 16 mph 1021.1mb 44f 43f
9:50am 1.6ft 3s 3s 13 16 mph 1020.7mb 44f 43f
9:40am 1.6ft  -  3s 13 16 mph 1020.6mb 44f 43f
9:30am  -   -   -  13 16 mph 1020.8mb 44f 43f
9:20am  -   -   -  13 16 mph 1020.8mb 44f 43f
9:10am  -   -   -  13 16 mph 1020.8mb 44f 43f
9:00am  -   -   -  13 16 mph 1021mb 44f 43f
8:50am 1.6ft 4s 3s 13 16 mph 1021.2mb 44f 43f
8:40am  -   -   -  16 18 mph 1021.3mb 44f 43f
8:30am  -   -   -  13 18 mph 1021.1mb 44f 43f
8:20am  -   -   -  16 18 mph 1021.1mb 44f 43f
8:10am  -   -   -  13 16 mph - 44f -
8:00am  -   -   -  13 16 mph 1020.9mb 44f 43f
7:50am 1.6ft 3s 3s 13 18 mph 1021mb 44f 43f
7:40am  -   -   -  13 18 mph 1020.8mb 44f 43f
7:30am  -   -   -  13 16 mph 1020.9mb 44f 44f
7:20am  -   -   -  13 18 mph 1021.1mb 44f 44f
7:10am  -   -   -  16 20 mph 1020.9mb 44f 44f
7:00am  -   -   -  16 18 mph 1020.8mb 44f 44f
6:50am 1.6ft 3s 3s 16 18 mph 1020.6mb 44f 44f
6:40am  -   -   -  16 18 mph 1020.5mb 44f 44f
6:30am  -   -   -  16 20 mph 1020.5mb 44f 44f
6:20am  -   -   -  13 18 mph 1020.5mb 44f 44f